sensor_id;sensor_type;location;lat;lon;timestamp;temperature;humidity
9201;DHT22;4635;48.686;9.008;2022-08-19T00:04:43;20.10;1.00
9201;DHT22;4635;48.686;9.008;2022-08-19T00:07:19;20.10;1.00
9201;DHT22;4635;48.686;9.008;2022-08-19T00:13:34;20.00;1.00
9201;DHT22;4635;48.686;9.008;2022-08-19T00:16:07;20.00;1.00
9201;DHT22;4635;48.686;9.008;2022-08-19T00:25:13;19.90;1.00
9201;DHT22;4635;48.686;9.008;2022-08-19T00:27:57;19.80;1.00
9201;DHT22;4635;48.686;9.008;2022-08-19T00:34:37;19.80;1.00
9201;DHT22;4635;48.686;9.008;2022-08-19T00:37:29;19.70;99.90
9201;DHT22;4635;48.686;9.008;2022-08-19T00:44:15;19.70;1.00
9201;DHT22;4635;48.686;9.008;2022-08-19T00:47:29;19.70;99.90
9201;DHT22;4635;48.686;9.008;2022-08-19T00:50:15;19.60;99.90
9201;DHT22;4635;48.686;9.008;2022-08-19T00:53:16;19.70;1.00
9201;DHT22;4635;48.686;9.008;2022-08-19T00:55:51;19.80;1.00
9201;DHT22;4635;48.686;9.008;2022-08-19T00:58:44;19.80;1.00
9201;DHT22;4635;48.686;9.008;2022-08-19T01:01:15;19.80;99.90
9201;DHT22;4635;48.686;9.008;2022-08-19T01:03:43;19.80;1.00
9201;DHT22;4635;48.686;9.008;2022-08-19T01:06:10;19.70;99.90
9201;DHT22;4635;48.686;9.008;2022-08-19T01:08:41;19.70;99.90
9201;DHT22;4635;48.686;9.008;2022-08-19T01:11:13;19.70;95.30
9201;DHT22;4635;48.686;9.008;2022-08-19T01:13:41;19.70;1.00
9201;DHT22;4635;48.686;9.008;2022-08-19T01:16:10;19.60;1.00
9201;DHT22;4635;48.686;9.008;2022-08-19T01:21:45;19.60;1.00
9201;DHT22;4635;48.686;9.008;2022-08-19T01:24:24;19.60;99.90
9201;DHT22;4635;48.686;9.008;2022-08-19T01:27:06;19.60;99.90
9201;DHT22;4635;48.686;9.008;2022-08-19T01:30:11;19.50;99.90
9201;DHT22;4635;48.686;9.008;2022-08-19T01:32:58;19.60;1.00
9201;DHT22;4635;48.686;9.008;2022-08-19T01:35:47;19.60;99.90
9201;DHT22;4635;48.686;9.008;2022-08-19T01:38:26;19.60;37.80
9201;DHT22;4635;48.686;9.008;2022-08-19T01:40:58;19.60;99.90
9201;DHT22;4635;48.686;9.008;2022-08-19T01:43:26;19.60;99.90
9201;DHT22;4635;48.686;9.008;2022-08-19T01:45:54;19.50;1.00
9201;DHT22;4635;48.686;9.008;2022-08-19T01:48:22;19.30;1.00
9201;DHT22;4635;48.686;9.008;2022-08-19T01:50:53;19.20;99.90
9201;DHT22;4635;48.686;9.008;2022-08-19T01:53:26;19.10;99.90
9201;DHT22;4635;48.686;9.008;2022-08-19T01:56:16;19.00;1.00
9201;DHT22;4635;48.686;9.008;2022-08-19T01:59:02;19.00;1.00
9201;DHT22;4635;48.686;9.008;2022-08-19T02:01:30;19.00;1.00
9201;DHT22;4635;48.686;9.008;2022-08-19T02:04:03;18.90;1.00
9201;DHT22;4635;48.686;9.008;2022-08-19T02:06:38;18.90;1.00
9201;DHT22;4635;48.686;9.008;2022-08-19T02:09:16;18.90;1.00
9201;DHT22;4635;48.686;9.008;2022-08-19T02:12:14;18.90;1.00
9201;DHT22;4635;48.686;9.008;2022-08-19T02:15:05;18.90;1.00
9201;DHT22;4635;48.686;9.008;2022-08-19T02:17:36;18.90;1.00
9201;DHT22;4635;48.686;9.008;2022-08-19T02:20:20;18.90;1.00
9201;DHT22;4635;48.686;9.008;2022-08-19T02:22:54;19.00;1.00
9201;DHT22;4635;48.686;9.008;2022-08-19T02:25:32;19.00;1.00
9201;DHT22;4635;48.686;9.008;2022-08-19T02:28:52;19.00;1.00
9201;DHT22;4635;48.686;9.008;2022-08-19T02:31:22;19.00;1.00
9201;DHT22;4635;48.686;9.008;2022-08-19T02:33:54;19.00;1.00
9201;DHT22;4635;48.686;9.008;2022-08-19T02:36:25;19.00;1.00
9201;DHT22;4635;48.686;9.008;2022-08-19T02:39:10;19.00;1.00
9201;DHT22;4635;48.686;9.008;2022-08-19T02:42:10;19.00;1.00
9201;DHT22;4635;48.686;9.008;2022-08-19T02:44:57;19.00;1.00
9201;DHT22;4635;48.686;9.008;2022-08-19T02:47:36;19.00;1.00
9201;DHT22;4635;48.686;9.008;2022-08-19T02:50:15;19.00;1.00
9201;DHT22;4635;48.686;9.008;2022-08-19T02:53:25;19.00;1.00
9201;DHT22;4635;48.686;9.008;2022-08-19T02:56:06;19.00;1.00
9201;DHT22;4635;48.686;9.008;2022-08-19T02:58:36;19.00;1.00
9201;DHT22;4635;48.686;9.008;2022-08-19T03:01:32;19.00;1.00
9201;DHT22;4635;48.686;9.008;2022-08-19T03:04:29;19.00;1.00
9201;DHT22;4635;48.686;9.008;2022-08-19T03:07:19;18.90;1.00
9201;DHT22;4635;48.686;9.008;2022-08-19T03:10:11;18.90;1.00
9201;DHT22;4635;48.686;9.008;2022-08-19T03:12:53;18.90;1.00
9201;DHT22;4635;48.686;9.008;2022-08-19T03:15:39;18.80;1.00
9201;DHT22;4635;48.686;9.008;2022-08-19T03:18:12;18.80;1.00
9201;DHT22;4635;48.686;9.008;2022-08-19T03:21:15;18.80;1.00
9201;DHT22;4635;48.686;9.008;2022-08-19T03:23:46;18.80;1.00
9201;DHT22;4635;48.686;9.008;2022-08-19T03:26:45;18.80;1.00
9201;DHT22;4635;48.686;9.008;2022-08-19T03:29:30;18.80;1.00
9201;DHT22;4635;48.686;9.008;2022-08-19T03:32:14;18.80;1.00
9201;DHT22;4635;48.686;9.008;2022-08-19T03:35:17;18.80;1.00
9201;DHT22;4635;48.686;9.008;2022-08-19T03:41:23;18.80;1.00
9201;DHT22;4635;48.686;9.008;2022-08-19T03:44:02;18.70;1.00
9201;DHT22;4635;48.686;9.008;2022-08-19T03:46:57;18.70;1.00
9201;DHT22;4635;48.686;9.008;2022-08-19T03:56:38;18.70;1.00
9201;DHT22;4635;48.686;9.008;2022-08-19T03:59:29;18.70;1.00
9201;DHT22;4635;48.686;9.008;2022-08-19T04:02:11;18.60;1.00
9201;DHT22;4635;48.686;9.008;2022-08-19T04:04:42;18.70;1.00
9201;DHT22;4635;48.686;9.008;2022-08-19T04:07:24;18.70;1.00
9201;DHT22;4635;48.686;9.008;2022-08-19T04:10:26;18.70;1.00
9201;DHT22;4635;48.686;9.008;2022-08-19T04:12:59;18.70;1.00
9201;DHT22;4635;48.686;9.008;2022-08-19T04:15:40;18.70;1.00
9201;DHT22;4635;48.686;9.008;2022-08-19T04:18:23;18.70;1.00
9201;DHT22;4635;48.686;9.008;2022-08-19T04:21:25;18.70;1.00
9201;DHT22;4635;48.686;9.008;2022-08-19T04:23:54;18.60;1.00
9201;DHT22;4635;48.686;9.008;2022-08-19T04:26:26;18.60;1.00
9201;DHT22;4635;48.686;9.008;2022-08-19T04:29:26;18.60;1.00
9201;DHT22;4635;48.686;9.008;2022-08-19T04:32:00;18.60;1.00
9201;DHT22;4635;48.686;9.008;2022-08-19T04:34:47;18.60;1.00
9201;DHT22;4635;48.686;9.008;2022-08-19T04:37:15;18.60;1.00
9201;DHT22;4635;48.686;9.008;2022-08-19T04:39:55;18.50;1.00
9201;DHT22;4635;48.686;9.008;2022-08-19T04:42:41;18.60;1.00
9201;DHT22;4635;48.686;9.008;2022-08-19T04:45:19;18.60;1.00
9201;DHT22;4635;48.686;9.008;2022-08-19T04:47:46;18.60;1.00
9201;DHT22;4635;48.686;9.008;2022-08-19T04:50:17;18.60;1.00
9201;DHT22;4635;48.686;9.008;2022-08-19T04:52:50;18.60;1.00
9201;DHT22;4635;48.686;9.008;2022-08-19T04:55:30;18.60;1.00
9201;DHT22;4635;48.686;9.008;2022-08-19T04:58:26;18.60;1.00
9201;DHT22;4635;48.686;9.008;2022-08-19T05:00:56;18.70;1.00
9201;DHT22;4635;48.686;9.008;2022-08-19T05:03:39;18.70;1.00
9201;DHT22;4635;48.686;9.008;2022-08-19T05:06:28;18.70;30.20
9201;DHT22;4635;48.686;9.008;2022-08-19T05:09:15;18.70;1.00
9201;DHT22;4635;48.686;9.008;2022-08-19T05:11:50;18.70;1.00
9201;DHT22;4635;48.686;9.008;2022-08-19T05:14:19;18.70;1.00
9201;DHT22;4635;48.686;9.008;2022-08-19T05:17:00;18.70;1.00
9201;DHT22;4635;48.686;9.008;2022-08-19T05:19:41;18.70;1.00
9201;DHT22;4635;48.686;9.008;2022-08-19T05:22:26;18.60;1.00
9201;DHT22;4635;48.686;9.008;2022-08-19T05:25:09;18.60;1.00
9201;DHT22;4635;48.686;9.008;2022-08-19T05:27:41;18.60;1.00
9201;DHT22;4635;48.686;9.008;2022-08-19T05:30:12;18.70;1.00
9201;DHT22;4635;48.686;9.008;2022-08-19T05:32:42;18.70;1.00
9201;DHT22;4635;48.686;9.008;2022-08-19T05:35:12;18.70;1.00
9201;DHT22;4635;48.686;9.008;2022-08-19T05:37:40;18.60;1.00
9201;DHT22;4635;48.686;9.008;2022-08-19T05:40:08;18.70;1.00
9201;DHT22;4635;48.686;9.008;2022-08-19T05:42:36;18.70;1.00
9201;DHT22;4635;48.686;9.008;2022-08-19T05:45:05;18.70;1.00
9201;DHT22;4635;48.686;9.008;2022-08-19T05:47:44;18.70;1.00
9201;DHT22;4635;48.686;9.008;2022-08-19T05:50:13;18.70;1.00
9201;DHT22;4635;48.686;9.008;2022-08-19T05:52:43;18.70;1.00
9201;DHT22;4635;48.686;9.008;2022-08-19T05:55:20;18.80;1.00
9201;DHT22;4635;48.686;9.008;2022-08-19T05:57:50;18.80;1.00
9201;DHT22;4635;48.686;9.008;2022-08-19T06:00:22;18.80;1.00
9201;DHT22;4635;48.686;9.008;2022-08-19T06:03:00;18.80;1.00
9201;DHT22;4635;48.686;9.008;2022-08-19T06:05:31;18.90;1.00
9201;DHT22;4635;48.686;9.008;2022-08-19T06:08:01;18.80;1.00
9201;DHT22;4635;48.686;9.008;2022-08-19T06:10:30;18.50;1.00
9201;DHT22;4635;48.686;9.008;2022-08-19T06:13:00;18.70;1.00
9201;DHT22;4635;48.686;9.008;2022-08-19T06:15:37;18.80;1.00
9201;DHT22;4635;48.686;9.008;2022-08-19T06:18:21;18.80;1.00
9201;DHT22;4635;48.686;9.008;2022-08-19T06:21:04;18.80;1.00
9201;DHT22;4635;48.686;9.008;2022-08-19T06:23:45;18.80;1.00
9201;DHT22;4635;48.686;9.008;2022-08-19T06:26:13;18.80;1.00
9201;DHT22;4635;48.686;9.008;2022-08-19T06:28:42;18.80;1.00
9201;DHT22;4635;48.686;9.008;2022-08-19T06:31:13;18.90;1.00
9201;DHT22;4635;48.686;9.008;2022-08-19T06:33:49;18.90;1.00
9201;DHT22;4635;48.686;9.008;2022-08-19T06:36:33;19.10;1.00
9201;DHT22;4635;48.686;9.008;2022-08-19T06:39:12;19.10;1.00
9201;DHT22;4635;48.686;9.008;2022-08-19T06:42:00;19.20;1.00
9201;DHT22;4635;48.686;9.008;2022-08-19T06:44:38;19.10;1.00
9201;DHT22;4635;48.686;9.008;2022-08-19T06:47:08;19.30;1.00
9201;DHT22;4635;48.686;9.008;2022-08-19T06:49:41;19.20;1.00
9201;DHT22;4635;48.686;9.008;2022-08-19T06:52:33;19.20;99.90
9201;DHT22;4635;48.686;9.008;2022-08-19T06:58:12;19.40;1.00
9201;DHT22;4635;48.686;9.008;2022-08-19T07:00:46;19.40;1.00
9201;DHT22;4635;48.686;9.008;2022-08-19T07:03:40;19.50;1.00
9201;DHT22;4635;48.686;9.008;2022-08-19T07:06:29;19.50;1.00
9201;DHT22;4635;48.686;9.008;2022-08-19T07:09:17;19.50;1.00
9201;DHT22;4635;48.686;9.008;2022-08-19T07:12:07;19.50;99.90
9201;DHT22;4635;48.686;9.008;2022-08-19T07:14:46;19.50;1.00
9201;DHT22;4635;48.686;9.008;2022-08-19T07:17:28;19.60;34.50
9201;DHT22;4635;48.686;9.008;2022-08-19T07:19:59;19.70;1.00
9201;DHT22;4635;48.686;9.008;2022-08-19T07:22:57;19.80;1.00
9201;DHT22;4635;48.686;9.008;2022-08-19T07:25:54;19.90;99.90
9201;DHT22;4635;48.686;9.008;2022-08-19T07:28:27;19.80;1.00
9201;DHT22;4635;48.686;9.008;2022-08-19T07:30:57;20.20;1.00
9201;DHT22;4635;48.686;9.008;2022-08-19T07:33:34;20.30;1.00
9201;DHT22;4635;48.686;9.008;2022-08-19T07:36:05;20.40;1.00
9201;DHT22;4635;48.686;9.008;2022-08-19T07:39:04;20.40;1.00
9201;DHT22;4635;48.686;9.008;2022-08-19T07:41:56;20.30;99.90
9201;DHT22;4635;48.686;9.008;2022-08-19T07:44:26;20.30;99.90
9201;DHT22;4635;48.686;9.008;2022-08-19T07:47:09;20.10;99.90
9201;DHT22;4635;48.686;9.008;2022-08-19T07:49:43;19.90;1.00
9201;DHT22;4635;48.686;9.008;2022-08-19T07:52:12;19.70;1.00
9201;DHT22;4635;48.686;9.008;2022-08-19T07:54:46;19.60;99.90
9201;DHT22;4635;48.686;9.008;2022-08-19T07:57:28;19.60;1.00
9201;DHT22;4635;48.686;9.008;2022-08-19T07:59:58;19.70;99.90
9201;DHT22;4635;48.686;9.008;2022-08-19T08:02:41;19.70;1.00
9201;DHT22;4635;48.686;9.008;2022-08-19T08:05:20;19.70;1.00
9201;DHT22;4635;48.686;9.008;2022-08-19T08:08:09;19.70;1.00
9201;DHT22;4635;48.686;9.008;2022-08-19T08:11:00;19.70;1.00
9201;DHT22;4635;48.686;9.008;2022-08-19T08:16:57;19.60;55.10
9201;DHT22;4635;48.686;9.008;2022-08-19T08:19:46;19.50;1.00
9201;DHT22;4635;48.686;9.008;2022-08-19T08:24:10;18.70;1.00
9201;DHT22;4635;48.686;9.008;2022-08-19T08:25:41;19.20;1.00
9201;DHT22;4635;48.686;9.008;2022-08-19T08:28:10;19.10;1.00
9201;DHT22;4635;48.686;9.008;2022-08-19T08:30:52;19.10;1.00
9201;DHT22;4635;48.686;9.008;2022-08-19T08:33:44;19.10;1.00
9201;DHT22;4635;48.686;9.008;2022-08-19T08:36:13;19.10;1.00
9201;DHT22;4635;48.686;9.008;2022-08-19T08:39:01;19.00;1.00
9201;DHT22;4635;48.686;9.008;2022-08-19T08:41:42;19.10;1.00
9201;DHT22;4635;48.686;9.008;2022-08-19T08:44:27;19.10;1.00
9201;DHT22;4635;48.686;9.008;2022-08-19T08:47:12;19.10;1.00
9201;DHT22;4635;48.686;9.008;2022-08-19T08:50:00;19.10;1.00
9201;DHT22;4635;48.686;9.008;2022-08-19T08:52:59;18.40;1.00
9201;DHT22;4635;48.686;9.008;2022-08-19T08:55:48;19.10;1.00
9201;DHT22;4635;48.686;9.008;2022-08-19T08:58:43;19.10;1.00
9201;DHT22;4635;48.686;9.008;2022-08-19T09:01:23;19.30;1.00
9201;DHT22;4635;48.686;9.008;2022-08-19T09:04:07;19.40;1.00
9201;DHT22;4635;48.686;9.008;2022-08-19T09:06:54;19.60;1.00
9201;DHT22;4635;48.686;9.008;2022-08-19T09:09:46;19.70;1.00
9201;DHT22;4635;48.686;9.008;2022-08-19T09:12:57;19.90;1.00
9201;DHT22;4635;48.686;9.008;2022-08-19T09:15:44;20.00;1.00
9201;DHT22;4635;48.686;9.008;2022-08-19T09:18:21;20.00;1.00
9201;DHT22;4635;48.686;9.008;2022-08-19T09:20:57;20.00;99.90
9201;DHT22;4635;48.686;9.008;2022-08-19T09:23:36;20.10;27.90
9201;DHT22;4635;48.686;9.008;2022-08-19T09:26:32;20.10;23.70
9201;DHT22;4635;48.686;9.008;2022-08-19T09:29:09;20.20;99.90
9201;DHT22;4635;48.686;9.008;2022-08-19T09:32:00;20.20;1.00
9201;DHT22;4635;48.686;9.008;2022-08-19T09:34:49;20.20;99.90
9201;DHT22;4635;48.686;9.008;2022-08-19T09:40:36;20.20;1.00
9201;DHT22;4635;48.686;9.008;2022-08-19T09:43:23;20.20;99.90
9201;DHT22;4635;48.686;9.008;2022-08-19T09:45:57;20.20;99.90
9201;DHT22;4635;48.686;9.008;2022-08-19T09:48:26;20.30;99.90
9201;DHT22;4635;48.686;9.008;2022-08-19T09:51:10;20.30;1.00
9201;DHT22;4635;48.686;9.008;2022-08-19T09:53:52;20.30;99.90
9201;DHT22;4635;48.686;9.008;2022-08-19T09:56:21;20.40;78.90
9201;DHT22;4635;48.686;9.008;2022-08-19T09:59:09;20.40;1.00
9201;DHT22;4635;48.686;9.008;2022-08-19T10:01:40;20.40;99.90
9201;DHT22;4635;48.686;9.008;2022-08-19T10:04:34;20.50;1.00
9201;DHT22;4635;48.686;9.008;2022-08-19T10:07:22;20.60;1.00
9201;DHT22;4635;48.686;9.008;2022-08-19T10:10:08;20.60;1.00
9201;DHT22;4635;48.686;9.008;2022-08-19T10:12:43;20.50;94.50
9201;DHT22;4635;48.686;9.008;2022-08-19T10:15:15;20.60;1.00
9201;DHT22;4635;48.686;9.008;2022-08-19T10:17:50;20.60;1.00
9201;DHT22;4635;48.686;9.008;2022-08-19T10:20:20;20.60;99.90
9201;DHT22;4635;48.686;9.008;2022-08-19T10:22:56;20.70;1.00
9201;DHT22;4635;48.686;9.008;2022-08-19T10:25:31;20.70;1.00
9201;DHT22;4635;48.686;9.008;2022-08-19T10:28:00;20.70;1.00
9201;DHT22;4635;48.686;9.008;2022-08-19T10:30:36;20.80;1.00
9201;DHT22;4635;48.686;9.008;2022-08-19T10:36:21;20.80;1.00
9201;DHT22;4635;48.686;9.008;2022-08-19T10:39:13;20.80;99.90
9201;DHT22;4635;48.686;9.008;2022-08-19T10:41:44;20.80;1.00
9201;DHT22;4635;48.686;9.008;2022-08-19T10:44:16;20.80;1.00
9201;DHT22;4635;48.686;9.008;2022-08-19T10:46:50;20.90;99.90
9201;DHT22;4635;48.686;9.008;2022-08-19T10:49:19;21.00;99.90
9201;DHT22;4635;48.686;9.008;2022-08-19T10:51:50;21.00;99.90
9201;DHT22;4635;48.686;9.008;2022-08-19T10:54:38;20.90;1.00
9201;DHT22;4635;48.686;9.008;2022-08-19T10:57:30;21.00;99.90
9201;DHT22;4635;48.686;9.008;2022-08-19T11:00:00;21.10;1.00
9201;DHT22;4635;48.686;9.008;2022-08-19T11:02:36;21.20;1.00
9201;DHT22;4635;48.686;9.008;2022-08-19T11:05:19;21.20;1.00
9201;DHT22;4635;48.686;9.008;2022-08-19T11:08:15;21.30;1.00
9201;DHT22;4635;48.686;9.008;2022-08-19T11:11:04;21.50;1.00
9201;DHT22;4635;48.686;9.008;2022-08-19T11:16:38;21.50;1.00
9201;DHT22;4635;48.686;9.008;2022-08-19T11:19:07;21.80;1.00
9201;DHT22;4635;48.686;9.008;2022-08-19T11:21:43;21.90;99.90
9201;DHT22;4635;48.686;9.008;2022-08-19T11:24:14;22.00;99.90
9201;DHT22;4635;48.686;9.008;2022-08-19T11:26:47;22.00;99.90
9201;DHT22;4635;48.686;9.008;2022-08-19T11:29:24;22.00;99.90
9201;DHT22;4635;48.686;9.008;2022-08-19T11:35:15;21.90;99.90
9201;DHT22;4635;48.686;9.008;2022-08-19T11:38:05;21.90;99.90
9201;DHT22;4635;48.686;9.008;2022-08-19T11:40:37;21.80;99.90
9201;DHT22;4635;48.686;9.008;2022-08-19T11:43:38;21.80;99.90
9201;DHT22;4635;48.686;9.008;2022-08-19T11:45:59;21.80;99.90
9201;DHT22;4635;48.686;9.008;2022-08-19T11:48:34;21.90;1.10
9201;DHT22;4635;48.686;9.008;2022-08-19T11:51:17;22.00;6.40
9201;DHT22;4635;48.686;9.008;2022-08-19T11:53:57;22.00;1.00
9201;DHT22;4635;48.686;9.008;2022-08-19T11:56:39;21.90;1.00
9201;DHT22;4635;48.686;9.008;2022-08-19T11:59:08;21.90;1.00
9201;DHT22;4635;48.686;9.008;2022-08-19T12:01:38;21.90;99.90
9201;DHT22;4635;48.686;9.008;2022-08-19T12:04:17;22.00;1.00
9201;DHT22;4635;48.686;9.008;2022-08-19T12:07:23;22.00;99.90
9201;DHT22;4635;48.686;9.008;2022-08-19T12:10:04;22.10;1.00
9201;DHT22;4635;48.686;9.008;2022-08-19T12:12:48;22.10;1.00
9201;DHT22;4635;48.686;9.008;2022-08-19T12:15:25;22.10;1.00
9201;DHT22;4635;48.686;9.008;2022-08-19T12:18:28;22.10;1.00
9201;DHT22;4635;48.686;9.008;2022-08-19T12:20:59;22.00;1.00
9201;DHT22;4635;48.686;9.008;2022-08-19T12:23:35;22.10;1.00
9201;DHT22;4635;48.686;9.008;2022-08-19T12:26:13;22.20;18.70
9201;DHT22;4635;48.686;9.008;2022-08-19T12:28:44;22.40;1.00
9201;DHT22;4635;48.686;9.008;2022-08-19T12:31:26;22.70;1.00
9201;DHT22;4635;48.686;9.008;2022-08-19T12:34:27;23.10;1.00
9201;DHT22;4635;48.686;9.008;2022-08-19T12:37:06;23.50;1.00
9201;DHT22;4635;48.686;9.008;2022-08-19T12:39:45;23.60;1.00
9201;DHT22;4635;48.686;9.008;2022-08-19T12:42:30;23.70;1.00
9201;DHT22;4635;48.686;9.008;2022-08-19T12:45:18;23.80;1.00
9201;DHT22;4635;48.686;9.008;2022-08-19T12:48:12;23.70;1.00
9201;DHT22;4635;48.686;9.008;2022-08-19T12:50:56;23.80;1.00
9201;DHT22;4635;48.686;9.008;2022-08-19T12:53:39;23.90;1.00
9201;DHT22;4635;48.686;9.008;2022-08-19T12:56:21;23.90;1.00
9201;DHT22;4635;48.686;9.008;2022-08-19T12:58:51;23.80;1.00
9201;DHT22;4635;48.686;9.008;2022-08-19T13:01:24;23.60;1.00
9201;DHT22;4635;48.686;9.008;2022-08-19T13:04:09;23.50;1.00
9201;DHT22;4635;48.686;9.008;2022-08-19T13:06:54;23.50;1.00
9201;DHT22;4635;48.686;9.008;2022-08-19T13:09:39;23.40;1.00
9201;DHT22;4635;48.686;9.008;2022-08-19T13:12:31;23.30;1.00
9201;DHT22;4635;48.686;9.008;2022-08-19T13:15:06;22.70;1.00
9201;DHT22;4635;48.686;9.008;2022-08-19T13:17:57;23.20;1.00
9201;DHT22;4635;48.686;9.008;2022-08-19T13:20:46;23.20;1.00
9201;DHT22;4635;48.686;9.008;2022-08-19T13:23:19;23.40;99.90
9201;DHT22;4635;48.686;9.008;2022-08-19T13:26:00;23.50;1.00
9201;DHT22;4635;48.686;9.008;2022-08-19T13:28:43;23.80;1.00
9201;DHT22;4635;48.686;9.008;2022-08-19T13:31:39;24.00;1.00
9201;DHT22;4635;48.686;9.008;2022-08-19T13:34:45;24.10;1.00
9201;DHT22;4635;48.686;9.008;2022-08-19T13:37:44;24.00;1.00
9201;DHT22;4635;48.686;9.008;2022-08-19T13:40:28;23.80;1.00
9201;DHT22;4635;48.686;9.008;2022-08-19T13:43:04;23.90;1.00
9201;DHT22;4635;48.686;9.008;2022-08-19T13:45:50;23.80;1.00
9201;DHT22;4635;48.686;9.008;2022-08-19T13:48:40;23.70;1.00
9201;DHT22;4635;48.686;9.008;2022-08-19T13:51:15;23.40;99.90
9201;DHT22;4635;48.686;9.008;2022-08-19T13:57:24;23.60;99.90
9201;DHT22;4635;48.686;9.008;2022-08-19T14:00:08;24.20;99.90
9201;DHT22;4635;48.686;9.008;2022-08-19T14:02:57;24.40;99.90
9201;DHT22;4635;48.686;9.008;2022-08-19T14:06:05;24.40;1.00
9201;DHT22;4635;48.686;9.008;2022-08-19T14:08:36;24.00;99.90
9201;DHT22;4635;48.686;9.008;2022-08-19T14:11:31;23.80;99.90
9201;DHT22;4635;48.686;9.008;2022-08-19T14:14:03;23.60;99.90
9201;DHT22;4635;48.686;9.008;2022-08-19T14:16:52;24.00;99.90
9201;DHT22;4635;48.686;9.008;2022-08-19T14:19:40;24.30;99.90
9201;DHT22;4635;48.686;9.008;2022-08-19T14:22:21;24.60;1.00
9201;DHT22;4635;48.686;9.008;2022-08-19T14:24:52;24.80;1.00
9201;DHT22;4635;48.686;9.008;2022-08-19T14:27:22;24.80;1.00
9201;DHT22;4635;48.686;9.008;2022-08-19T14:29:51;24.70;1.00
9201;DHT22;4635;48.686;9.008;2022-08-19T14:32:25;24.40;1.00
9201;DHT22;4635;48.686;9.008;2022-08-19T14:35:03;24.20;99.90
9201;DHT22;4635;48.686;9.008;2022-08-19T14:37:53;23.90;99.90
9201;DHT22;4635;48.686;9.008;2022-08-19T14:40:28;23.60;1.00
9201;DHT22;4635;48.686;9.008;2022-08-19T14:43:09;23.40;99.90
9201;DHT22;4635;48.686;9.008;2022-08-19T14:45:46;23.40;99.90
9201;DHT22;4635;48.686;9.008;2022-08-19T14:48:17;23.40;99.90
9201;DHT22;4635;48.686;9.008;2022-08-19T14:50:47;23.50;99.90
9201;DHT22;4635;48.686;9.008;2022-08-19T14:53:40;23.60;1.00
9201;DHT22;4635;48.686;9.008;2022-08-19T14:56:16;23.80;99.90
9201;DHT22;4635;48.686;9.008;2022-08-19T14:58:49;23.90;99.90
9201;DHT22;4635;48.686;9.008;2022-08-19T15:01:37;23.90;1.00
9201;DHT22;4635;48.686;9.008;2022-08-19T15:04:10;24.00;99.90
9201;DHT22;4635;48.686;9.008;2022-08-19T15:07:19;24.10;99.90
9201;DHT22;4635;48.686;9.008;2022-08-19T15:09:51;24.20;99.90
9201;DHT22;4635;48.686;9.008;2022-08-19T15:12:29;24.30;1.00
9201;DHT22;4635;48.686;9.008;2022-08-19T15:15:22;24.30;1.00
9201;DHT22;4635;48.686;9.008;2022-08-19T15:17:53;24.30;1.00
9201;DHT22;4635;48.686;9.008;2022-08-19T15:20:31;24.40;99.90
9201;DHT22;4635;48.686;9.008;2022-08-19T15:23:13;24.50;1.00
9201;DHT22;4635;48.686;9.008;2022-08-19T15:25:46;24.80;1.00
9201;DHT22;4635;48.686;9.008;2022-08-19T15:28:21;25.20;1.00
9201;DHT22;4635;48.686;9.008;2022-08-19T15:30:48;25.50;1.00
9201;DHT22;4635;48.686;9.008;2022-08-19T15:33:31;25.70;1.00
9201;DHT22;4635;48.686;9.008;2022-08-19T15:36:14;25.80;1.00
9201;DHT22;4635;48.686;9.008;2022-08-19T15:39:04;25.60;1.00
9201;DHT22;4635;48.686;9.008;2022-08-19T15:41:35;25.30;1.00
9201;DHT22;4635;48.686;9.008;2022-08-19T15:44:08;25.30;1.00
9201;DHT22;4635;48.686;9.008;2022-08-19T15:46:49;25.40;1.00
9201;DHT22;4635;48.686;9.008;2022-08-19T15:49:24;25.50;1.00
9201;DHT22;4635;48.686;9.008;2022-08-19T15:51:55;25.00;1.00
9201;DHT22;4635;48.686;9.008;2022-08-19T15:54:33;25.20;1.00
9201;DHT22;4635;48.686;9.008;2022-08-19T15:57:03;25.20;1.00
9201;DHT22;4635;48.686;9.008;2022-08-19T15:59:48;25.10;1.00
9201;DHT22;4635;48.686;9.008;2022-08-19T16:02:33;25.00;1.00
9201;DHT22;4635;48.686;9.008;2022-08-19T16:05:34;24.90;1.00
9201;DHT22;4635;48.686;9.008;2022-08-19T16:08:19;24.70;1.00
9201;DHT22;4635;48.686;9.008;2022-08-19T16:10:48;24.70;1.00
9201;DHT22;4635;48.686;9.008;2022-08-19T16:13:16;24.70;1.00
9201;DHT22;4635;48.686;9.008;2022-08-19T16:15:43;24.80;99.90
9201;DHT22;4635;48.686;9.008;2022-08-19T16:18:12;24.80;1.00
9201;DHT22;4635;48.686;9.008;2022-08-19T16:20:39;24.70;99.90
9201;DHT22;4635;48.686;9.008;2022-08-19T16:23:07;24.70;1.00
9201;DHT22;4635;48.686;9.008;2022-08-19T16:25:34;24.60;99.90
9201;DHT22;4635;48.686;9.008;2022-08-19T16:28:07;24.60;1.00
9201;DHT22;4635;48.686;9.008;2022-08-19T16:30:40;24.50;1.00
9201;DHT22;4635;48.686;9.008;2022-08-19T16:33:09;24.50;1.00
9201;DHT22;4635;48.686;9.008;2022-08-19T16:35:37;24.40;99.90
9201;DHT22;4635;48.686;9.008;2022-08-19T16:38:05;24.20;1.00
9201;DHT22;4635;48.686;9.008;2022-08-19T16:40:36;24.30;1.00
9201;DHT22;4635;48.686;9.008;2022-08-19T16:43:09;24.20;99.90
9201;DHT22;4635;48.686;9.008;2022-08-19T16:45:37;24.10;1.00
9201;DHT22;4635;48.686;9.008;2022-08-19T16:48:07;24.00;1.00
9201;DHT22;4635;48.686;9.008;2022-08-19T16:50:37;24.00;1.00
9201;DHT22;4635;48.686;9.008;2022-08-19T16:53:07;23.90;1.00
9201;DHT22;4635;48.686;9.008;2022-08-19T16:55:36;23.80;1.00
9201;DHT22;4635;48.686;9.008;2022-08-19T16:58:08;23.80;1.00
9201;DHT22;4635;48.686;9.008;2022-08-19T17:00:38;23.70;1.00
9201;DHT22;4635;48.686;9.008;2022-08-19T17:03:08;23.70;99.90
9201;DHT22;4635;48.686;9.008;2022-08-19T17:05:42;23.70;99.90
9201;DHT22;4635;48.686;9.008;2022-08-19T17:08:17;23.70;1.00
9201;DHT22;4635;48.686;9.008;2022-08-19T17:10:47;23.70;1.00
9201;DHT22;4635;48.686;9.008;2022-08-19T17:13:29;23.60;1.00
9201;DHT22;4635;48.686;9.008;2022-08-19T17:16:00;23.60;99.90
9201;DHT22;4635;48.686;9.008;2022-08-19T17:18:53;23.60;99.90
9201;DHT22;4635;48.686;9.008;2022-08-19T17:21:39;23.50;99.90
9201;DHT22;4635;48.686;9.008;2022-08-19T17:24:09;23.50;99.90
9201;DHT22;4635;48.686;9.008;2022-08-19T17:26:38;23.50;99.90
9201;DHT22;4635;48.686;9.008;2022-08-19T17:29:18;23.40;99.90
9201;DHT22;4635;48.686;9.008;2022-08-19T17:31:45;23.50;99.90
9201;DHT22;4635;48.686;9.008;2022-08-19T17:34:19;23.50;99.90
9201;DHT22;4635;48.686;9.008;2022-08-19T17:36:46;23.50;99.90
9201;DHT22;4635;48.686;9.008;2022-08-19T17:39:14;23.50;99.90
9201;DHT22;4635;48.686;9.008;2022-08-19T17:41:45;23.50;1.00
9201;DHT22;4635;48.686;9.008;2022-08-19T17:44:14;23.50;1.00
9201;DHT22;4635;48.686;9.008;2022-08-19T17:46:54;23.50;1.00
9201;DHT22;4635;48.686;9.008;2022-08-19T17:49:27;23.50;99.90
9201;DHT22;4635;48.686;9.008;2022-08-19T17:52:02;23.50;99.90
9201;DHT22;4635;48.686;9.008;2022-08-19T17:54:33;23.50;1.00
9201;DHT22;4635;48.686;9.008;2022-08-19T17:57:05;23.50;1.00
9201;DHT22;4635;48.686;9.008;2022-08-19T17:59:42;23.50;1.00
9201;DHT22;4635;48.686;9.008;2022-08-19T18:02:11;23.40;99.90
9201;DHT22;4635;48.686;9.008;2022-08-19T18:04:40;23.30;1.00
9201;DHT22;4635;48.686;9.008;2022-08-19T18:07:08;23.30;1.00
9201;DHT22;4635;48.686;9.008;2022-08-19T18:09:43;23.20;1.00
9201;DHT22;4635;48.686;9.008;2022-08-19T18:12:13;23.20;1.00
9201;DHT22;4635;48.686;9.008;2022-08-19T18:14:57;23.10;1.00
9201;DHT22;4635;48.686;9.008;2022-08-19T18:17:25;23.10;1.00
9201;DHT22;4635;48.686;9.008;2022-08-19T18:19:57;23.10;1.00
9201;DHT22;4635;48.686;9.008;2022-08-19T18:22:30;23.00;1.00
9201;DHT22;4635;48.686;9.008;2022-08-19T18:25:14;22.90;1.00
9201;DHT22;4635;48.686;9.008;2022-08-19T18:27:48;22.90;99.90
9201;DHT22;4635;48.686;9.008;2022-08-19T18:30:21;22.80;99.90
9201;DHT22;4635;48.686;9.008;2022-08-19T18:32:50;22.80;99.90